METAR Data

Data at: 2133 UTC 01 Dec 2021

METAR for:KBGR (Bangor Intl Arpt, ME, US)
Text:KBGR 012053Z VRB06KT 10SM FEW050 SCT250 04/M04 A3002 RMK AO2 SLP167 T00391039 53018
Temperature: 3.9°C ( 39°F)
Dewpoint: -3.9°C ( 25°F) [RH = 57%]
Pressure (altimeter):30.02 inches Hg (1016.7 mb) [Sea level pressure: 1016.7 mb]
Winds:variable direction winds at 7 MPH (6 knots; 3.1 m/s)
Visibility:10 or more sm (16+ km)
Ceiling:at least 12,000 feet AGL
Clouds: few clouds at 5000 feet AGL, scattered clouds at 25000 feet AGL